Ogden, UT

2:50 PM MST on December 08, 2019 (GMT -0700)
Ogden-Hinckley | | Change Station

Elev 4469 ft 41.20 °N, 112.01 °W | Updated 57 minutes ago

Overcast
Overcast
35 °F
Feels Like 31 °F
N
5
Wind Variable Wind from South

Today
High -- | Low -- °F
--% Chance of Precip.
Yesterday
High -- | Low -- °F
Precip. -- in
Pressure 29.94 in
Visibility 6.0 miles
Clouds Overcast 7500 ft
Windchill 31 °F
Dew Point 35 °F
Humidity 100%
Rainfall 0.19 in
Snow Depth Not available.
7:40 AM 4:59 PM
Waxing Gibbous, 89% visible
METAR KOGD 082053Z 19004KT 6SM BR OVC075 02/02 A2992 RMK AO2 SLP138 T00170017 58007 $
Pressure 29.94 in
Visibility 6.0 miles
Clouds Overcast 7500 ft
Windchill 31 °F
Dew Point 35 °F
Humidity 100%
Rainfall 0.19 in
Snow Depth Not available.
7:40 AM 4:59 PM
Waxing Gibbous, 89% visible
METAR KOGD 082053Z 19004KT 6SM BR OVC075 02/02 A2992 RMK AO2 SLP138 T00170017 58007 $

Get Severe Weather Alerts

Thanks for signing up!

Be on the lookout for a verification email in your inbox.

You'll start receiving the daily forecast at 6 AM.

×

10-Day Weather Forecast

Almanac

Astronomy

Dec. 08, 2019 Rise Set
Actual Time
Civil Twilight
Nautical Twilight
Astronomical Twilight
Moon
Length of Visible Light
Length of Day
Tomorrow will be .
, % of the Moon is Illuminated

Today's Extremes

State Highs State Lows

Community

WunderPhotos

Category 6

Welcome to Category 6. This is the collective home for Weather Underground's featured writeups by Dr. Jeff Masters (right), Bob Henson (left), Chris Burt, and other regular contributors.

Nearby

Air Quality

  Air Quality AQ Index Pollutant
Not available.

Snow Depth

Station Depth Elevation

Earthquake Activity

City Distance Mag. Time & Date
Minimum magnitude displayed is 2.5.

Coastal Water Temperatures

Place Temperature

Stations

Nearby Weather Stations

Station Location Temp. Windchill Dew Point Humidity Wind Precip. Elev Updated Type
                   

Watches & Warnings

There are currently no watches in effect.